CheckWX is a tool to help pilots better visualize weather data.  It is not intended as a substitute for an official pre-flight weather briefing.

18:29:35 UTC

KJDD METAR
Wood County Airport
Mineola/Quitman, Texas, USA
Current

35 mins ago

KJDD 221755Z AUTO 02003KT 10SM OVC005 09/09 A3005 RMK AO2 TSNO
Observed
Feb-22 @ 17:55 UTC
Wind
  • 020° at 3 KTS
Visibility
10 SM
Flight Rules
IFR
Cloud Levels
  • Overcast at 500' AGL
Temperature
C / 48°F
Dewpoint
C / 48°F
Humidity
100%
Altimeter
30.05" Hg
Pressure
1017.62 hPa
Previous

55 mins ago

KJDD 221735Z AUTO 01003KT 10SM OVC005 09/08 A3004 RMK AO2 TSNO
Observed
Feb-22 @ 17:35 UTC
Wind
  • 010° at 3 KTS
Visibility
10 SM
Flight Rules
IFR
Cloud Levels
  • Overcast at 500' AGL
Temperature
C / 48°F
Dewpoint
C / 46°F
Humidity
94%
Altimeter
30.04" Hg
Pressure
1017.32 hPa
Previous

1 hour ago

KJDD 221715Z AUTO 02003KT 10SM OVC005 09/09 A3005 RMK AO2 TSNO
Observed
Feb-22 @ 17:15 UTC
Wind
  • 020° at 3 KTS
Visibility
10 SM
Flight Rules
IFR
Cloud Levels
  • Overcast at 500' AGL
Temperature
C / 48°F
Dewpoint
C / 48°F
Humidity
100%
Altimeter
30.05" Hg
Pressure
1017.62 hPa